createdAt,value
2018-06-09T00:01:59.674Z,15.72
2018-06-09T00:04:28.844Z,14.87
2018-06-09T00:06:57.972Z,18.45
2018-06-09T00:09:27.278Z,19.60
2018-06-09T00:11:56.598Z,15.15
2018-06-09T00:14:26.081Z,16.77
2018-06-09T00:16:54.763Z,14.95
2018-06-09T00:19:24.062Z,15.60
2018-06-09T00:21:53.522Z,16.35
2018-06-09T00:24:22.913Z,15.75
2018-06-09T00:26:51.866Z,16.25
2018-06-09T00:29:20.956Z,15.73
2018-06-09T00:31:49.920Z,15.23
2018-06-09T00:34:19.079Z,12.33
2018-06-09T00:36:48.147Z,15.63
2018-06-09T00:39:17.300Z,13.95
2018-06-09T00:41:46.367Z,14.13
2018-06-09T00:44:15.503Z,15.63
2018-06-09T00:46:44.461Z,15.18
2018-06-09T00:49:13.379Z,14.73
2018-06-09T00:51:42.379Z,14.28
2018-06-09T00:54:11.523Z,12.37
2018-06-09T00:56:46.490Z,15.18
2018-06-09T00:59:15.591Z,15.80
2018-06-09T01:01:44.666Z,16.50
2018-06-09T01:04:13.691Z,13.65
2018-06-09T01:06:42.648Z,13.50
2018-06-09T01:09:11.673Z,14.87
2018-06-09T01:11:40.668Z,14.03
2018-06-09T01:14:10.034Z,15.50
2018-06-09T01:16:39.183Z,11.35
2018-06-09T01:19:08.212Z,12.93
2018-06-09T01:21:36.850Z,15.15
2018-06-09T01:24:06.005Z,14.17
2018-06-09T01:26:35.063Z,15.53
2018-06-09T01:29:04.131Z,12.93
2018-06-09T01:31:33.250Z,16.82
2018-06-09T01:34:02.424Z,15.00
2018-06-09T01:36:31.482Z,15.48
2018-06-09T01:39:00.555Z,19.23
2018-06-09T01:41:29.585Z,16.25
2018-06-09T01:43:58.699Z,17.23
2018-06-09T01:46:27.834Z,16.17
2018-06-09T01:48:57.000Z,11.97
2018-06-09T01:51:26.034Z,16.52
2018-06-09T01:53:55.355Z,14.23
2018-06-09T01:56:24.661Z,18.37
2018-06-09T01:58:53.734Z,10.35
2018-06-09T02:01:23.210Z,14.33
2018-06-09T02:03:52.277Z,14.13
2018-06-09T02:06:21.626Z,12.53
2018-06-09T02:08:50.659Z,15.30
2018-06-09T02:11:19.674Z,17.77
2018-06-09T02:13:48.672Z,16.60
2018-06-09T02:16:17.618Z,16.87
2018-06-09T02:18:46.549Z,11.70
2018-06-09T02:21:15.566Z,11.85
2018-06-09T02:23:44.606Z,16.35
2018-06-09T02:26:14.006Z,13.30
2018-06-09T02:28:43.107Z,10.18
2018-06-09T02:31:12.223Z,16.17
2018-06-09T02:33:41.254Z,15.38
2018-06-09T02:36:10.318Z,14.75
2018-06-09T02:38:39.347Z,13.32
2018-06-09T02:41:08.347Z,16.10
2018-06-09T02:43:37.392Z,11.88
2018-06-09T02:46:06.449Z,14.18
2018-06-09T02:48:35.495Z,16.77
2018-06-09T02:51:04.573Z,12.37
2018-06-09T02:53:33.691Z,11.40
2018-06-09T02:56:02.696Z,10.35
2018-06-09T02:58:31.715Z,13.80
2018-06-09T03:01:00.933Z,13.80
2018-06-09T03:03:30.107Z,17.77
2018-06-09T03:05:59.244Z,13.03
2018-06-09T03:08:28.565Z,12.95
2018-06-09T03:10:57.778Z,17.57
2018-06-09T03:13:26.927Z,14.93
2018-06-09T03:15:56.115Z,11.75
2018-06-09T03:18:25.152Z,12.60
2018-06-09T03:20:53.702Z,10.38
2018-06-09T03:23:23.044Z,11.47
2018-06-09T03:25:52.127Z,13.80
2018-06-09T03:28:21.440Z,14.18
2018-06-09T03:30:50.524Z,14.93
2018-06-09T03:33:19.495Z,13.05
2018-06-09T03:35:48.615Z,13.75
2018-06-09T03:38:17.963Z,13.03
2018-06-09T03:40:47.055Z,11.03
2018-06-09T03:43:16.076Z,13.53
2018-06-09T03:45:44.991Z,12.95
2018-06-09T03:48:14.094Z,13.08
2018-06-09T03:50:43.234Z,12.50
2018-06-09T03:53:12.344Z,13.62
2018-06-09T03:55:41.355Z,11.60
2018-06-09T03:58:10.554Z,12.63
2018-06-09T04:00:39.571Z,11.20
2018-06-09T04:03:08.611Z,14.13
2018-06-09T04:05:37.690Z,12.65
2018-06-09T04:08:06.726Z,12.98
2018-06-09T04:10:35.699Z,12.93
2018-06-09T04:13:04.862Z,14.23
2018-06-09T04:15:33.865Z,12.67
2018-06-09T04:18:03.036Z,12.07
2018-06-09T04:20:32.131Z,10.05
2018-06-09T04:23:01.152Z,14.23
2018-06-09T04:25:30.189Z,11.68
2018-06-09T04:27:59.237Z,13.13
2018-06-09T04:30:28.484Z,13.10
2018-06-09T04:32:57.678Z,14.23
2018-06-09T04:35:26.824Z,7.65
2018-06-09T04:37:55.987Z,11.97
2018-06-09T04:40:25.119Z,10.50
2018-06-09T04:42:54.224Z,11.60
2018-06-09T04:45:23.672Z,11.57
2018-06-09T04:47:52.886Z,9.55
2018-06-09T04:50:22.314Z,9.83
2018-06-09T04:52:51.482Z,13.25
2018-06-09T04:55:20.496Z,11.97
2018-06-09T04:57:49.654Z,10.68
2018-06-09T05:00:18.808Z,13.13
2018-06-09T05:02:47.767Z,9.63
2018-06-09T05:05:16.944Z,11.65
2018-06-09T05:07:45.918Z,8.70
2018-06-09T05:10:14.827Z,11.20
2018-06-09T05:12:43.870Z,8.90
2018-06-09T05:15:13.032Z,10.43
2018-06-09T05:17:42.012Z,9.88
2018-06-09T05:20:11.923Z,10.88
2018-06-09T05:22:40.923Z,11.97
2018-06-09T05:25:10.002Z,7.65
2018-06-09T05:27:39.058Z,10.72
2018-06-09T05:30:08.167Z,9.13
2018-06-09T05:32:37.191Z,8.25
2018-06-09T05:35:06.570Z,9.05
2018-06-09T05:37:35.922Z,9.60
2018-06-09T05:40:05.287Z,9.75
2018-06-09T05:42:34.347Z,11.45
2018-06-09T05:45:03.422Z,6.30
2018-06-09T05:47:32.571Z,7.90
2018-06-09T05:50:01.660Z,9.08
2018-06-09T05:52:30.798Z,9.73
2018-06-09T05:54:59.964Z,8.23
2018-06-09T05:57:29.345Z,9.03
2018-06-09T05:59:58.400Z,10.18
2018-06-09T06:02:34.417Z,8.53
2018-06-09T06:05:03.673Z,9.78
2018-06-09T06:07:32.207Z,6.83
2018-06-09T06:10:01.241Z,6.92
2018-06-09T06:12:30.385Z,8.48
2018-06-09T06:14:59.379Z,6.58
2018-06-09T06:17:28.737Z,8.40
2018-06-09T06:19:58.024Z,10.20
2018-06-09T06:22:27.360Z,7.90
2018-06-09T06:24:56.414Z,10.58
2018-06-09T06:27:25.590Z,9.80
2018-06-09T06:29:54.958Z,11.00
2018-06-09T06:32:24.382Z,8.87
2018-06-09T06:34:53.639Z,7.92
2018-06-09T06:37:22.808Z,7.42
2018-06-09T06:39:52.164Z,10.15
2018-06-09T06:42:21.444Z,7.33
2018-06-09T06:44:50.540Z,10.03
2018-06-09T06:47:19.630Z,10.25
2018-06-09T06:49:48.757Z,7.95
2018-06-09T06:52:17.835Z,6.42
2018-06-09T06:54:47.066Z,6.40
2018-06-09T06:57:16.055Z,6.17
2018-06-09T06:59:45.196Z,8.35
2018-06-09T07:02:14.307Z,7.50
2018-06-09T07:04:43.608Z,7.08
2018-06-09T07:07:12.592Z,9.13
2018-06-09T07:09:41.636Z,7.33
2018-06-09T07:12:10.807Z,6.70
2018-06-09T07:14:39.842Z,9.13
2018-06-09T07:17:09.116Z,8.58
2018-06-09T07:19:38.218Z,8.83
2018-06-09T07:22:07.386Z,7.92
2018-06-09T07:24:36.421Z,8.93
2018-06-09T07:27:05.583Z,8.63
2018-06-09T07:29:34.547Z,8.75
2018-06-09T07:32:03.592Z,9.40
2018-06-09T07:34:32.584Z,9.58
2018-06-09T07:37:01.594Z,6.90
2018-06-09T07:39:30.762Z,9.58
2018-06-09T07:41:59.886Z,10.28
2018-06-09T07:44:29.035Z,8.13
2018-06-09T07:46:58.239Z,11.43
2018-06-09T07:49:27.363Z,9.53
2018-06-09T07:51:56.572Z,10.17
2018-06-09T07:54:25.768Z,11.50
2018-06-09T07:56:55.203Z,9.83
2018-06-09T07:59:24.410Z,10.78
2018-06-09T08:01:53.755Z,9.98
2018-06-09T08:04:23.045Z,9.93
2018-06-09T08:06:52.157Z,11.38
2018-06-09T08:09:21.231Z,11.93
2018-06-09T08:11:50.366Z,8.63
2018-06-09T08:14:19.416Z,11.03
2018-06-09T08:16:48.450Z,9.28
2018-06-09T08:19:17.394Z,8.38
2018-06-09T08:21:46.562Z,9.53
2018-06-09T08:24:15.551Z,13.38
2018-06-09T08:26:44.600Z,11.18
2018-06-09T08:29:13.660Z,12.03
2018-06-09T08:31:42.692Z,13.10
2018-06-09T08:34:11.907Z,8.38
2018-06-09T08:36:40.928Z,11.68
2018-06-09T08:39:10.034Z,11.95
2018-06-09T08:41:39.190Z,12.05
2018-06-09T08:44:08.221Z,12.33
2018-06-09T08:46:37.216Z,13.98
2018-06-09T08:49:06.349Z,10.55
2018-06-09T08:51:35.536Z,15.05
2018-06-09T08:54:04.591Z,10.65
2018-06-09T08:56:33.651Z,14.68
2018-06-09T08:59:02.783Z,11.90
2018-06-09T09:01:31.830Z,13.98
2018-06-09T09:04:00.898Z,13.90
2018-06-09T09:06:29.935Z,16.30
2018-06-09T09:08:59.078Z,18.55
2018-06-09T09:11:27.694Z,17.62
2018-06-09T09:13:57.139Z,13.60
2018-06-09T09:16:26.333Z,11.80
2018-06-09T09:18:55.641Z,15.53
2018-06-09T09:21:24.831Z,11.20
2018-06-09T09:23:54.243Z,10.00
2018-06-09T09:26:23.513Z,10.98
2018-06-09T09:28:52.716Z,13.40
2018-06-09T09:31:28.588Z,12.55
2018-06-09T09:33:57.703Z,15.13
2018-06-09T09:36:26.899Z,10.18
2018-06-09T09:38:56.345Z,18.47
2018-06-09T09:41:26.072Z,12.98
2018-06-09T09:43:55.342Z,11.50
2018-06-09T09:46:24.617Z,11.50
2018-06-09T09:48:53.824Z,12.80
2018-06-09T09:51:23.096Z,13.03
2018-06-09T09:53:52.143Z,11.28
2018-06-09T09:56:21.701Z,13.38
2018-06-09T09:58:50.753Z,8.85
2018-06-09T10:01:19.933Z,12.82
2018-06-09T10:03:49.049Z,15.90
2018-06-09T10:06:18.131Z,14.83
2018-06-09T10:08:47.187Z,11.63
2018-06-09T10:11:16.215Z,14.03
2018-06-09T10:13:45.194Z,11.40
2018-06-09T10:16:14.265Z,13.03
2018-06-09T10:18:43.415Z,11.10
2018-06-09T10:21:12.559Z,14.13
2018-06-09T10:23:41.619Z,13.10
2018-06-09T10:26:10.720Z,12.88
2018-06-09T10:28:39.988Z,15.23
2018-06-09T10:31:09.020Z,13.58
2018-06-09T10:33:38.107Z,14.87
2018-06-09T10:36:07.359Z,13.40
2018-06-09T10:38:36.387Z,12.50
2018-06-09T10:41:05.354Z,11.00
2018-06-09T10:43:34.395Z,11.83
2018-06-09T10:46:03.372Z,14.50
2018-06-09T10:48:32.427Z,11.03
2018-06-09T10:51:01.401Z,11.05
2018-06-09T10:53:30.388Z,12.25
2018-06-09T10:55:59.495Z,9.90
2018-06-09T10:58:28.806Z,11.65
2018-06-09T11:00:57.851Z,9.43
2018-06-09T11:03:27.032Z,12.75
2018-06-09T11:05:56.291Z,13.48
2018-06-09T11:08:25.523Z,9.70
2018-06-09T11:10:54.753Z,8.88
2018-06-09T11:13:24.062Z,11.93
2018-06-09T11:15:53.451Z,9.55
2018-06-09T11:18:22.827Z,7.47
2018-06-09T11:20:51.982Z,9.78
2018-06-09T11:23:21.820Z,10.80
2018-06-09T11:25:50.883Z,8.48
2018-06-09T11:28:19.942Z,9.78
2018-06-09T11:30:49.011Z,8.70
2018-06-09T11:33:18.130Z,9.43
2018-06-09T11:35:47.206Z,8.23
2018-06-09T11:38:16.420Z,9.58
2018-06-09T11:40:45.549Z,10.88
2018-06-09T11:43:14.577Z,10.35
2018-06-09T11:45:43.643Z,8.23
2018-06-09T11:48:12.824Z,11.22
2018-06-09T11:50:41.826Z,9.18
2018-06-09T11:53:10.924Z,9.17
2018-06-09T11:55:40.080Z,12.68
2018-06-09T11:58:09.030Z,9.45
2018-06-09T12:00:38.065Z,8.40
2018-06-09T12:03:07.114Z,10.28
2018-06-09T12:05:36.203Z,8.57
2018-06-09T12:08:05.359Z,9.73
2018-06-09T12:10:34.499Z,8.50
2018-06-09T12:13:03.573Z,9.43
2018-06-09T12:15:32.740Z,9.58
2018-06-09T12:18:01.664Z,10.63
2018-06-09T12:20:30.720Z,8.78
2018-06-09T12:22:59.791Z,9.20
2018-06-09T12:25:28.898Z,9.03
2018-06-09T12:27:57.955Z,10.68
2018-06-09T12:30:26.910Z,7.08
2018-06-09T12:32:55.926Z,9.93
2018-06-09T12:35:24.919Z,11.03
2018-06-09T12:37:54.176Z,10.37
2018-06-09T12:40:23.314Z,10.55
2018-06-09T12:42:52.468Z,9.40
2018-06-09T12:45:21.455Z,11.78
2018-06-09T12:47:50.711Z,12.30
2018-06-09T12:50:19.286Z,9.18
2018-06-09T12:52:47.971Z,11.63
2018-06-09T12:55:17.200Z,10.55
2018-06-09T12:57:46.802Z,11.57
2018-06-09T13:00:16.297Z,12.53
2018-06-09T13:02:45.396Z,8.93
2018-06-09T13:05:15.117Z,11.78
2018-06-09T13:07:44.347Z,10.93
2018-06-09T13:10:15.464Z,12.82
2018-06-09T13:12:44.591Z,10.53
2018-06-09T13:15:14.352Z,9.58
2018-06-09T13:17:43.354Z,7.63
2018-06-09T13:20:12.623Z,10.25
2018-06-09T13:22:41.684Z,7.67
2018-06-09T13:25:10.803Z,7.40
2018-06-09T13:27:39.767Z,7.10
2018-06-09T13:30:08.918Z,7.67
2018-06-09T13:32:37.990Z,8.48
2018-06-09T13:35:07.126Z,9.03
2018-06-09T13:37:36.104Z,9.30
2018-06-09T13:40:05.259Z,10.35
2018-06-09T13:42:34.420Z,13.20
2018-06-09T13:45:03.552Z,8.75
2018-06-09T13:47:32.540Z,10.00
2018-06-09T13:50:01.701Z,9.18
2018-06-09T13:52:30.734Z,7.78
2018-06-09T13:54:59.908Z,8.55
2018-06-09T13:57:30.604Z,10.98
2018-06-09T13:59:59.925Z,7.80
2018-06-09T14:02:29.119Z,9.10
2018-06-09T14:04:58.527Z,7.47
2018-06-09T14:07:27.801Z,8.15
2018-06-09T14:09:57.057Z,6.83
2018-06-09T14:12:26.251Z,10.00
2018-06-09T14:14:55.546Z,7.37
2018-06-09T14:17:24.834Z,7.75
2018-06-09T14:19:54.283Z,5.60
2018-06-09T14:22:23.690Z,5.90
2018-06-09T14:24:53.330Z,6.08
2018-06-09T14:27:22.855Z,6.15
2018-06-09T14:29:52.053Z,5.37
2018-06-09T14:32:21.243Z,5.80
2018-06-09T14:34:50.421Z,6.37
2018-06-09T14:37:19.562Z,6.55
2018-06-09T14:39:48.909Z,5.45
2018-06-09T14:42:17.938Z,6.00
2018-06-09T14:44:47.018Z,6.47
2018-06-09T14:47:16.104Z,5.80
2018-06-09T14:49:45.246Z,5.28
2018-06-09T14:52:14.505Z,5.28
2018-06-09T14:54:43.585Z,5.95
2018-06-09T14:57:12.588Z,4.78
2018-06-09T14:59:41.618Z,4.55
2018-06-09T15:02:10.593Z,4.92
2018-06-09T15:04:39.594Z,5.55
2018-06-09T15:07:08.646Z,3.50
2018-06-09T15:09:37.908Z,5.53
2018-06-09T15:12:06.533Z,6.12
2018-06-09T15:14:35.619Z,4.28
2018-06-09T15:17:05.150Z,6.05
2018-06-09T15:19:34.233Z,5.40
2018-06-09T15:22:03.361Z,5.95
2018-06-09T15:24:32.407Z,7.75
2018-06-09T15:27:01.481Z,5.67
2018-06-09T15:29:30.765Z,4.03
2018-06-09T15:31:59.894Z,3.85
2018-06-09T15:34:29.074Z,5.20
2018-06-09T15:36:58.303Z,4.20
2018-06-09T15:39:27.784Z,5.35
2018-06-09T15:41:56.933Z,4.60
2018-06-09T15:44:30.350Z,4.30
2018-06-09T15:46:59.850Z,4.50
2018-06-09T15:49:28.996Z,4.05
2018-06-09T15:51:58.552Z,5.40
2018-06-09T15:54:27.728Z,4.40
2018-06-09T15:56:57.307Z,5.22
2018-06-09T15:59:26.920Z,4.77
2018-06-09T16:01:56.417Z,5.37
2018-06-09T16:04:25.945Z,5.83
2018-06-09T16:06:55.416Z,8.07
2018-06-09T16:09:24.544Z,9.10
2018-06-09T16:11:53.838Z,14.95
2018-06-09T16:14:23.036Z,7.65
2018-06-09T16:16:52.019Z,5.53
2018-06-09T16:19:21.031Z,5.72
2018-06-09T16:21:50.098Z,5.17
2018-06-09T16:24:19.147Z,4.47
2018-06-09T16:26:48.225Z,5.37
2018-06-09T16:29:17.606Z,9.53
2018-06-09T16:31:46.971Z,8.90
2018-06-09T16:34:16.272Z,15.10
2018-06-09T16:36:45.444Z,28.02
2018-06-09T16:39:14.595Z,7.73
2018-06-09T16:41:43.645Z,7.45
2018-06-09T16:44:12.707Z,4.80
2018-06-09T16:46:41.719Z,4.28
2018-06-09T16:49:10.890Z,5.00
2018-06-09T16:51:40.063Z,4.05
2018-06-09T16:54:09.011Z,4.85
2018-06-09T16:56:38.090Z,5.47
2018-06-09T16:59:07.142Z,5.90
2018-06-09T17:01:36.150Z,6.83
2018-06-09T17:04:05.471Z,4.60
2018-06-09T17:06:34.578Z,4.92
2018-06-09T17:09:03.895Z,6.10
2018-06-09T17:11:32.923Z,3.58
2018-06-09T17:14:01.989Z,4.00
2018-06-09T17:16:31.027Z,7.07
2018-06-09T17:19:00.372Z,5.10
2018-06-09T17:21:29.315Z,5.37
2018-06-09T17:23:58.783Z,6.47
2018-06-09T17:26:28.063Z,4.17
2018-06-09T17:28:57.359Z,7.25
2018-06-09T17:31:27.061Z,6.30
2018-06-09T17:33:56.645Z,8.08
2018-06-09T17:36:26.069Z,7.33
2018-06-09T17:38:55.710Z,8.23
2018-06-09T17:41:25.040Z,4.08
2018-06-09T17:43:53.731Z,4.25
2018-06-09T17:46:22.903Z,4.30
2018-06-09T17:48:52.207Z,4.33
2018-06-09T17:51:21.389Z,4.05
2018-06-09T17:53:50.483Z,3.50
2018-06-09T17:56:19.558Z,2.92
2018-06-09T17:58:48.718Z,4.45
2018-06-09T18:01:17.759Z,5.83
2018-06-09T18:03:46.748Z,3.90
2018-06-09T18:06:15.708Z,4.83
2018-06-09T18:08:44.719Z,4.60
2018-06-09T18:11:13.923Z,3.15
2018-06-09T18:13:42.979Z,4.83
2018-06-09T18:16:12.030Z,3.40
2018-06-09T18:18:41.064Z,3.27
2018-06-09T18:21:09.653Z,3.50
2018-06-09T18:23:39.022Z,3.67
2018-06-09T18:26:08.548Z,5.50
2018-06-09T18:28:37.547Z,4.47
2018-06-09T18:31:06.570Z,4.92
2018-06-09T18:33:35.453Z,4.00
2018-06-09T18:36:04.674Z,4.83
2018-06-09T18:38:33.662Z,4.28
2018-06-09T18:41:02.722Z,3.33
2018-06-09T18:43:31.675Z,5.83
2018-06-09T18:46:00.726Z,3.93
2018-06-09T18:48:29.674Z,4.42
2018-06-09T18:50:58.719Z,5.67
2018-06-09T18:53:27.717Z,3.65
2018-06-09T18:55:56.826Z,5.85
2018-06-09T18:58:25.811Z,4.40
2018-06-09T19:00:54.979Z,3.30
2018-06-09T19:03:24.199Z,4.83
2018-06-09T19:05:53.274Z,4.83
2018-06-09T19:08:22.450Z,4.70
2018-06-09T19:10:51.703Z,4.58
2018-06-09T19:13:20.784Z,3.83
2018-06-09T19:15:50.243Z,3.40
2018-06-09T19:18:19.417Z,4.70
2018-06-09T19:20:48.703Z,4.08
2018-06-09T19:23:18.231Z,4.22
2018-06-09T19:25:47.587Z,4.75
2018-06-09T19:28:16.868Z,3.72
2018-06-09T19:30:46.058Z,4.22
2018-06-09T19:33:15.023Z,3.10
2018-06-09T19:35:45.461Z,6.13
2018-06-09T19:38:14.997Z,3.45
2018-06-09T19:40:44.172Z,3.20
2018-06-09T19:43:13.484Z,4.00
2018-06-09T19:45:42.743Z,4.80
2018-06-09T19:48:12.734Z,4.77
2018-06-09T19:50:42.160Z,4.97
2018-06-09T19:53:11.227Z,4.10
2018-06-09T19:55:40.306Z,7.17
2018-06-09T19:58:09.335Z,4.23
2018-06-09T20:00:38.437Z,3.92
2018-06-09T20:03:07.546Z,3.60
2018-06-09T20:05:36.503Z,3.80
2018-06-09T20:08:05.855Z,4.42
2018-06-09T20:10:34.926Z,3.70
2018-06-09T20:13:03.984Z,5.35
2018-06-09T20:15:33.039Z,4.00
2018-06-09T20:18:02.086Z,3.95
2018-06-09T20:20:31.087Z,5.08
2018-06-09T20:22:59.729Z,6.03
2018-06-09T20:25:28.796Z,5.58
2018-06-09T20:27:57.436Z,4.22
2018-06-09T20:30:26.616Z,3.72
2018-06-09T20:32:55.599Z,3.77
2018-06-09T20:35:24.699Z,4.00
2018-06-09T20:37:53.731Z,4.08
2018-06-09T20:40:22.703Z,4.65
2018-06-09T20:42:51.926Z,4.40
2018-06-09T20:45:20.910Z,4.43
2018-06-09T20:47:50.510Z,5.33
2018-06-09T20:50:19.738Z,5.70
2018-06-09T20:52:49.194Z,4.85
2018-06-09T20:55:18.527Z,8.13
2018-06-09T20:57:47.840Z,7.83
2018-06-09T21:00:17.323Z,5.37
2018-06-09T21:02:46.785Z,7.15
2018-06-09T21:05:19.383Z,4.80
2018-06-09T21:07:48.687Z,6.15
2018-06-09T21:10:18.093Z,5.45
2018-06-09T21:12:47.380Z,6.85
2018-06-09T21:15:16.834Z,4.70
2018-06-09T21:17:46.292Z,4.28
2018-06-09T21:20:15.363Z,5.83
2018-06-09T21:22:44.757Z,6.58
2018-06-09T21:25:13.878Z,3.30
2018-06-09T21:27:48.242Z,5.55
2018-06-09T21:30:17.824Z,3.25
2018-06-09T21:32:48.206Z,3.93
2018-06-09T21:35:33.635Z,4.28
2018-06-09T21:38:07.807Z,6.28
2018-06-09T21:40:41.834Z,3.57
2018-06-09T21:43:16.180Z,5.10
2018-06-09T21:45:49.999Z,5.00
2018-06-09T21:48:20.079Z,4.62
2018-06-09T21:50:49.563Z,3.77
2018-06-09T21:53:18.814Z,3.83
2018-06-09T21:55:48.003Z,4.28
2018-06-09T21:58:17.271Z,4.20
2018-06-09T22:00:46.738Z,3.10
2018-06-09T22:03:15.990Z,5.00
2018-06-09T22:05:45.353Z,5.15
2018-06-09T22:08:14.517Z,4.35
2018-06-09T22:10:43.824Z,3.27
2018-06-09T22:13:12.887Z,4.17
2018-06-09T22:15:41.927Z,4.72
2018-06-09T22:18:10.839Z,3.52
2018-06-09T22:20:39.886Z,3.77
2018-06-09T22:23:09.073Z,6.00
2018-06-09T22:25:43.211Z,4.47
2018-06-09T22:28:12.233Z,3.15
2018-06-09T22:30:41.237Z,3.85
2018-06-09T22:33:10.348Z,3.87
2018-06-09T22:35:39.571Z,3.67
2018-06-09T22:38:08.652Z,5.83
2018-06-09T22:40:37.931Z,4.25
2018-06-09T22:43:07.063Z,6.83
2018-06-09T22:45:36.150Z,5.42
2018-06-09T22:48:05.168Z,5.42
2018-06-09T22:50:34.184Z,4.67
2018-06-09T22:53:03.281Z,6.03
2018-06-09T22:55:32.277Z,4.93
2018-06-09T22:58:01.615Z,5.42
2018-06-09T23:00:37.127Z,5.78
2018-06-09T23:03:06.174Z,5.47
2018-06-09T23:05:35.163Z,3.00
2018-06-09T23:08:04.191Z,5.30
2018-06-09T23:10:33.142Z,4.22
2018-06-09T23:13:02.182Z,4.30
2018-06-09T23:15:31.230Z,5.63
2018-06-09T23:18:00.231Z,4.78
2018-06-09T23:20:29.164Z,4.22
2018-06-09T23:22:58.169Z,5.20
2018-06-09T23:25:27.427Z,4.62
2018-06-09T23:27:56.399Z,3.92
2018-06-09T23:30:25.446Z,3.27
2018-06-09T23:32:54.528Z,4.20
2018-06-09T23:35:23.650Z,3.87
2018-06-09T23:37:52.619Z,4.40
2018-06-09T23:40:21.655Z,4.87
2018-06-09T23:42:50.819Z,4.62
2018-06-09T23:45:19.991Z,5.20
2018-06-09T23:47:49.187Z,4.50
2018-06-09T23:50:18.416Z,3.93
2018-06-09T23:52:47.598Z,5.57
2018-06-09T23:56:00.853Z,5.67
2018-06-09T23:58:29.836Z,5.53
